Time;durP1;ratioP1;P1;durP2;ratioP2;P2;SDS_P1;SDS_P2;PMS_P1;PMS_P2;Temp;Humidity;BMP_temperature;BMP_pressure;BME280_temperature;BME280_humidity;BME280_pressure;Samples;Min_cycle;Max_cycle;Signal;HPM_P1;HPM_P2
2023/01/28 00:01:46;;;;;;;6.15;3.63;;;19.50;99.90;;;;;;5015677;28;20037;-51
2023/01/28 00:04:12;;;;;;;5.40;3.75;;;19.50;99.90;;;;;;5015635;28;20025;-51
2023/01/28 00:06:37;;;;;;;6.10;4.30;;;19.50;99.90;;;;;;5015579;28;20045;-50
2023/01/28 00:09:03;;;;;;;6.57;4.35;;;19.50;99.90;;;;;;5015616;28;20491;-50
2023/01/28 00:11:29;;;;;;;5.35;3.55;;;19.40;99.90;;;;;;5015583;28;20030;-52
2023/01/28 00:13:55;;;;;;;5.28;3.72;;;19.40;99.90;;;;;;5015471;28;20068;-51
2023/01/28 00:16:25;;;;;;;5.72;3.60;;;19.40;99.90;;;;;;5030827;28;20018;-51
2023/01/28 00:18:52;;;;;;;5.40;3.88;;;19.40;99.90;;;;;;5015540;28;20018;-51
2023/01/28 00:21:18;;;;;;;7.28;3.55;;;19.40;99.90;;;;;;5015475;28;20457;-51
2023/01/28 00:23:50;;;;;;;6.53;4.25;;;19.40;99.90;;;;;;5015375;28;20117;-51
2023/01/28 00:26:16;;;;;;;6.45;4.25;;;19.40;99.90;;;;;;5014114;28;20045;-51
2023/01/28 00:28:42;;;;;;;4.78;3.70;;;19.30;99.90;;;;;;5015109;28;20026;-51
2023/01/28 00:31:12;;;;;;;7.35;4.85;;;19.30;99.90;;;;;;4997725;28;20030;-51
2023/01/28 00:33:38;;;;;;;6.38;4.25;;;19.30;99.90;;;;;;5015196;28;20030;-51
2023/01/28 00:36:05;;;;;;;7.53;4.43;;;19.30;99.90;;;;;;5015151;28;20430;-52
2023/01/28 00:38:31;;;;;;;6.60;4.38;;;19.30;99.90;;;;;;5015206;28;20101;-51
2023/01/28 00:41:13;;;;;;;7.43;4.43;;;19.30;99.90;;;;;;5014949;28;20109;-51
2023/01/28 00:43:39;;;;;;;7.28;4.57;;;19.30;99.90;;;;;;5014898;28;20018;-51
2023/01/28 00:46:06;;;;;;;6.60;4.40;;;19.20;99.90;;;;;;5014895;28;20030;-52
2023/01/28 00:48:39;;;;;;;7.97;4.93;;;19.20;99.90;;;;;;5014716;28;20034;-51
2023/01/28 00:51:06;;;;;;;5.43;4.15;;;19.20;99.90;;;;;;5014709;28;20061;-51
2023/01/28 00:53:33;;;;;;;6.10;4.67;;;19.20;99.90;;;;;;5014795;28;20053;-51
2023/01/28 00:55:59;;;;;;;6.55;4.75;;;19.20;99.90;;;;;;5014502;28;20271;-51
2023/01/28 00:58:25;;;;;;;7.22;4.43;;;19.20;99.90;;;;;;5014884;28;20041;-51
2023/01/28 01:00:51;;;;;;;5.93;3.90;;;19.10;99.90;;;;;;5015241;28;20049;-52
2023/01/28 01:03:18;;;;;;;7.78;4.50;;;19.10;99.90;;;;;;5014529;28;20033;-51
2023/01/28 01:05:44;;;;;;;6.57;4.82;;;19.10;99.90;;;;;;4996791;28;20030;-51
2023/01/28 01:08:09;;;;;;;6.55;4.22;;;19.10;99.90;;;;;;5014275;28;20037;-51
2023/01/28 01:10:36;;;;;;;6.63;4.63;;;19.10;99.90;;;;;;5014382;28;20065;-51
2023/01/28 01:13:04;;;;;;;9.87;4.70;;;19.10;99.90;;;;;;5014421;28;20046;-52
2023/01/28 01:15:29;;;;;;;5.85;4.75;;;19.10;99.90;;;;;;5014383;28;20386;-51
2023/01/28 01:17:56;;;;;;;7.20;4.68;;;19.00;99.90;;;;;;5014523;28;20080;-51
2023/01/28 01:20:32;;;;;;;8.38;4.32;;;19.00;99.90;;;;;;5014098;28;20021;-51
2023/01/28 01:22:58;;;;;;;7.68;4.70;;;19.00;99.90;;;;;;5014172;28;20034;-51
2023/01/28 01:25:23;;;;;;;5.07;3.45;;;19.00;99.90;;;;;;5014362;28;20104;-51
2023/01/28 01:27:49;;;;;;;7.35;4.75;;;19.00;99.90;;;;;;5014057;28;20089;-51
2023/01/28 01:30:16;;;;;;;6.50;4.15;;;19.00;99.90;;;;;;5014035;28;20029;-51
2023/01/28 01:32:42;;;;;;;6.22;4.45;;;19.00;99.90;;;;;;5013851;28;20022;-51
2023/01/28 01:35:09;;;;;;;6.60;4.45;;;19.00;99.90;;;;;;5013915;28;20025;-52
2023/01/28 01:37:36;;;;;;;7.57;4.45;;;18.90;99.90;;;;;;5013614;28;20046;-51
2023/01/28 01:40:03;;;;;;;7.75;4.97;;;18.90;99.90;;;;;;5013728;28;20036;-51
2023/01/28 01:42:30;;;;;;;6.70;4.32;;;18.90;99.90;;;;;;5013956;28;20475;-51
2023/01/28 01:45:05;;;;;;;6.40;3.97;;;18.90;99.90;;;;;;4996436;28;20034;-51
2023/01/28 01:48:04;;;;;;;8.55;4.80;;;18.90;99.90;;;;;;5013595;28;20395;-51
2023/01/28 01:50:36;;;;;;;7.05;4.82;;;18.90;99.90;;;;;;5028732;28;20398;-51
2023/01/28 01:53:09;;;;;;;6.45;4.57;;;18.90;99.90;;;;;;5013722;28;20022;-51
2023/01/28 01:55:38;;;;;;;5.72;4.65;;;18.80;99.90;;;;;;5013659;28;20029;-51
2023/01/28 01:58:10;;;;;;;6.75;4.50;;;18.80;99.90;;;;;;5013621;28;20096;-51
2023/01/28 02:00:36;;;;;;;7.22;4.60;;;18.80;99.90;;;;;;5013864;28;20120;-51
2023/01/28 02:03:02;;;;;;;8.25;4.72;;;18.80;99.90;;;;;;5028573;28;20025;-51
2023/01/28 02:05:28;;;;;;;6.78;4.65;;;18.80;99.90;;;;;;4995966;28;20026;-51
2023/01/28 02:10:43;;;;;;;5.35;3.83;;;18.80;99.90;;;;;;5013482;28;20033;-51
2023/01/28 02:13:09;;;;;;;6.27;4.20;;;18.70;99.90;;;;;;5013132;28;20026;-51
2023/01/28 02:15:35;;;;;;;5.97;3.88;;;18.80;99.90;;;;;;5013142;28;20029;-51
2023/01/28 02:18:01;;;;;;;6.38;4.40;;;18.70;99.90;;;;;;5013314;28;20096;-51
2023/01/28 02:20:50;;;;;;;6.18;4.05;;;18.70;99.90;;;;;;5013259;28;20026;-51
2023/01/28 02:23:34;;;;;;;6.03;4.05;;;18.70;99.90;;;;;;5003912;28;20045;-51
2023/01/28 02:26:27;;;;;;;8.23;4.82;;;18.70;99.90;;;;;;5013013;28;20030;-51
2023/01/28 02:29:14;;;;;;;6.00;4.10;;;18.70;99.90;;;;;;5028108;28;20057;-50
2023/01/28 02:31:59;;;;;;;6.97;4.20;;;18.60;99.90;;;;;;5012907;28;20041;-51
2023/01/28 02:35:06;;;;;;;6.15;4.00;;;18.60;99.90;;;;;;5027488;28;20096;-52
2023/01/28 02:37:55;;;;;;;5.88;4.13;;;18.60;99.90;;;;;;4992482;28;20093;-51
2023/01/28 02:40:29;;;;;;;6.30;4.32;;;18.60;99.90;;;;;;5012536;28;20033;-50
2023/01/28 02:42:56;;;;;;;6.63;3.85;;;18.60;99.90;;;;;;5011573;28;20101;-50
2023/01/28 02:48:21;;;;;;;7.07;4.78;;;18.60;99.90;;;;;;5012427;28;20049;-50
2023/01/28 02:51:30;;;;;;;7.68;4.70;;;18.60;99.90;;;;;;5012675;28;20029;-51
2023/01/28 02:54:07;;;;;;;7.50;4.80;;;18.50;99.90;;;;;;4994436;28;20026;-51
2023/01/28 02:56:47;;;;;;;5.55;3.72;;;18.50;99.90;;;;;;5011894;28;20018;-50
2023/01/28 02:59:30;;;;;;;7.75;4.63;;;18.50;99.90;;;;;;5012225;28;20037;-52
2023/01/28 03:02:08;;;;;;;5.90;4.32;;;18.50;99.90;;;;;;5011146;28;20096;-51
2023/01/28 03:04:43;;;;;;;7.15;4.95;;;18.50;99.90;;;;;;5026009;28;20030;-51
2023/01/28 03:07:11;;;;;;;8.23;4.25;;;18.50;99.90;;;;;;5010884;28;20453;-50
2023/01/28 03:09:39;;;;;;;7.45;4.55;;;18.50;99.90;;;;;;4993939;28;20481;-51
2023/01/28 03:38:40;;;;;;;7.57;4.75;;;18.20;99.90;;;;;;5012648;28;20068;-51
2023/01/28 03:41:08;;;;;;;7.70;4.70;;;18.30;99.90;;;;;;4994520;28;20099;-51
2023/01/28 03:43:34;;;;;;;6.90;4.50;;;18.20;99.90;;;;;;5012604;28;20076;-52
2023/01/28 03:46:01;;;;;;;6.38;4.40;;;18.20;99.90;;;;;;5011108;28;20487;-51
2023/01/28 03:48:27;;;;;;;6.33;4.33;;;18.20;99.90;;;;;;5012266;28;20033;-51
2023/01/28 03:50:59;;;;;;;7.47;4.57;;;18.20;99.90;;;;;;5012008;28;20463;-51
2023/01/28 03:53:25;;;;;;;5.72;4.18;;;18.20;99.90;;;;;;5012119;28;20549;-51
2023/01/28 03:55:53;;;;;;;7.93;4.82;;;18.20;99.90;;;;;;5012046;28;20105;-50
2023/01/28 03:58:19;;;;;;;6.03;4.07;;;18.20;99.90;;;;;;5010816;28;20037;-51
2023/01/28 04:00:46;;;;;;;7.03;4.22;;;18.20;99.90;;;;;;5015029;28;20042;-51
2023/01/28 04:03:15;;;;;;;6.65;4.20;;;18.10;99.90;;;;;;5015739;28;20022;-51
2023/01/28 04:05:59;;;;;;;7.45;5.20;;;18.10;99.90;;;;;;5015513;28;20029;-51
2023/01/28 04:08:24;;;;;;;6.53;4.38;;;18.10;99.90;;;;;;5015553;28;20057;-51
2023/01/28 04:10:51;;;;;;;6.65;4.28;;;18.10;99.90;;;;;;5015601;28;20053;-51
2023/01/28 04:13:17;;;;;;;5.32;4.07;;;18.10;99.90;;;;;;5014270;28;20439;-51
2023/01/28 04:15:44;;;;;;;6.68;4.32;;;18.10;99.90;;;;;;5015507;28;20100;-51
2023/01/28 04:18:10;;;;;;;7.15;4.10;;;18.10;99.90;;;;;;5015432;28;20026;-50
2023/01/28 04:20:36;;;;;;;6.88;4.25;;;18.10;99.90;;;;;;5015527;28;20030;-50
2023/01/28 04:23:03;;;;;;;5.80;4.15;;;18.00;99.90;;;;;;5015466;28;20410;-50
2023/01/28 04:25:29;;;;;;;5.85;3.25;;;18.10;99.90;;;;;;4997593;28;20391;-50
2023/01/28 04:27:55;;;;;;;6.68;4.57;;;18.00;99.90;;;;;;5015131;28;20029;-50
2023/01/28 04:30:21;;;;;;;5.95;3.40;;;18.00;99.90;;;;;;5015106;28;20386;-50
2023/01/28 04:32:49;;;;;;;6.28;4.13;;;18.00;99.90;;;;;;5013882;28;20445;-51
2023/01/28 04:35:16;;;;;;;7.53;4.47;;;18.00;99.90;;;;;;5015071;28;20018;-51
2023/01/28 04:37:42;;;;;;;6.30;3.78;;;18.00;99.90;;;;;;5013799;28;20022;-51
2023/01/28 04:40:09;;;;;;;6.53;4.10;;;18.00;99.90;;;;;;5014949;28;20517;-50
2023/01/28 04:42:35;;;;;;;5.80;3.88;;;18.00;99.90;;;;;;5014963;28;20436;-50
2023/01/28 04:45:00;;;;;;;5.68;3.80;;;17.90;99.90;;;;;;5014888;28;20026;-51
2023/01/28 04:47:26;;;;;;;6.20;3.50;;;17.90;99.90;;;;;;5013010;28;20045;-51
2023/01/28 04:49:52;;;;;;;6.80;3.92;;;17.90;99.90;;;;;;5013299;28;20033;-50
2023/01/28 04:52:18;;;;;;;5.60;3.53;;;17.90;99.90;;;;;;5014742;28;20029;-51
2023/01/28 04:54:43;;;;;;;4.63;3.25;;;17.90;99.90;;;;;;5014710;28;20033;-50
2023/01/28 04:57:09;;;;;;;5.38;3.58;;;17.90;99.90;;;;;;5014686;28;20025;-51
2023/01/28 04:59:35;;;;;;;4.47;3.70;;;17.90;99.90;;;;;;5033051;22;20057;-53
2023/01/28 05:02:01;;;;;;;5.80;4.15;;;17.80;99.90;;;;;;5054383;28;20112;-54
2023/01/28 05:04:27;;;;;;;5.43;3.47;;;17.80;99.90;;;;;;5054194;28;20384;-52
2023/01/28 05:06:52;;;;;;;4.85;3.25;;;17.80;99.90;;;;;;5054163;28;20113;-54
2023/01/28 05:09:18;;;;;;;5.95;3.97;;;17.80;99.90;;;;;;5054018;28;20393;-54
2023/01/28 05:11:44;;;;;;;6.10;3.42;;;17.80;99.90;;;;;;5053465;28;20025;-53
2023/01/28 05:14:10;;;;;;;6.25;3.95;;;17.80;99.90;;;;;;5053968;28;20082;-53
2023/01/28 05:16:36;;;;;;;5.57;3.55;;;17.80;99.90;;;;;;5054191;28;20441;-53
2023/01/28 05:19:02;;;;;;;5.07;3.33;;;17.70;99.90;;;;;;5053867;28;20465;-53
2023/01/28 05:21:28;;;;;;;4.80;3.42;;;17.80;99.90;;;;;;5053831;28;20048;-54
2023/01/28 05:23:53;;;;;;;5.47;3.40;;;17.70;99.90;;;;;;5053761;28;20064;-54
2023/01/28 05:26:19;;;;;;;6.20;3.38;;;17.70;99.90;;;;;;5053696;28;20470;-53
2023/01/28 05:28:45;;;;;;;5.75;3.97;;;17.70;99.90;;;;;;5053694;28;20028;-54
2023/01/28 05:31:11;;;;;;;4.68;3.38;;;17.70;99.90;;;;;;5053681;28;20033;-54
2023/01/28 05:33:37;;;;;;;6.65;3.53;;;17.70;99.90;;;;;;5053844;28;20029;-53
2023/01/28 05:36:03;;;;;;;4.85;3.53;;;17.70;99.90;;;;;;5053557;28;20021;-53
2023/01/28 05:38:29;;;;;;;4.97;3.47;;;17.70;99.90;;;;;;5053486;28;20027;-53
2023/01/28 05:40:55;;;;;;;4.47;3.30;;;17.70;99.90;;;;;;5053488;28;20465;-54
2023/01/28 05:43:21;;;;;;;4.85;3.13;;;17.70;99.90;;;;;;5053221;28;20473;-53
2023/01/28 05:45:47;;;;;;;4.55;3.22;;;17.60;99.90;;;;;;5053256;28;20033;-53
2023/01/28 05:48:13;;;;;;;5.65;3.85;;;17.60;99.90;;;;;;5053322;28;20413;-53
2023/01/28 05:50:39;;;;;;;4.45;3.28;;;17.60;99.90;;;;;;5052381;28;20025;-54
2023/01/28 05:53:06;;;;;;;6.90;2.97;;;17.60;99.90;;;;;;5053269;28;20541;-53
2023/01/28 05:55:32;;;;;;;6.50;3.45;;;17.60;99.90;;;;;;5053195;28;20029;-52
2023/01/28 05:57:57;;;;;;;4.50;3.13;;;17.60;99.90;;;;;;5052997;28;20396;-52
2023/01/28 06:00:23;;;;;;;4.60;3.30;;;17.60;99.90;;;;;;5052864;28;20103;-52
2023/01/28 06:02:50;;;;;;;4.47;2.90;;;17.60;99.90;;;;;;5052932;28;20063;-53
2023/01/28 06:05:16;;;;;;;5.13;3.33;;;17.60;99.90;;;;;;5052951;28;20104;-53
2023/01/28 06:07:46;;;;;;;4.97;3.05;;;17.50;99.90;;;;;;5052869;28;20448;-54
2023/01/28 06:10:13;;;;;;;4.85;3.13;;;17.50;99.90;;;;;;5052930;28;20373;-54
2023/01/28 06:12:39;;;;;;;5.73;3.43;;;17.50;99.90;;;;;;5053008;28;20071;-53
2023/01/28 06:15:05;;;;;;;4.28;3.03;;;17.50;99.90;;;;;;5052769;28;20057;-53
2023/01/28 06:17:31;;;;;;;4.60;3.33;;;17.50;99.90;;;;;;5052731;28;20029;-53
2023/01/28 06:19:57;;;;;;;4.45;3.10;;;17.50;99.90;;;;;;5052687;28;20031;-55
2023/01/28 06:22:23;;;;;;;6.45;4.13;;;17.50;99.90;;;;;;5052556;28;20036;-55
2023/01/28 06:24:48;;;;;;;5.53;3.10;;;17.50;99.90;;;;;;5052064;28;20366;-55
2023/01/28 06:27:14;;;;;;;4.35;3.15;;;17.50;99.90;;;;;;5052460;28;20040;-52
2023/01/28 06:29:40;;;;;;;4.60;3.38;;;17.50;99.90;;;;;;5052842;28;20377;-54
2023/01/28 06:32:06;;;;;;;4.80;2.92;;;17.50;99.90;;;;;;5052340;28;20055;-53
2023/01/28 06:34:32;;;;;;;4.10;3.40;;;17.50;99.90;;;;;;5052532;28;20032;-53
2023/01/28 06:36:58;;;;;;;5.22;3.17;;;17.40;99.90;;;;;;5052571;28;20090;-54
2023/01/28 06:39:25;;;;;;;4.45;3.05;;;17.40;99.90;;;;;;5052477;28;20477;-53
2023/01/28 06:41:51;;;;;;;5.25;3.50;;;17.40;99.90;;;;;;5052411;28;20043;-54
2023/01/28 06:44:17;;;;;;;4.05;2.90;;;17.40;99.90;;;;;;5052462;28;20021;-54
2023/01/28 06:46:43;;;;;;;4.40;3.30;;;17.40;99.90;;;;;;5052595;28;20064;-53
2023/01/28 06:49:09;;;;;;;4.50;3.13;;;17.40;99.90;;;;;;5052651;28;20082;-53
2023/01/28 06:51:34;;;;;;;5.15;3.72;;;17.40;99.90;;;;;;5052187;28;20104;-52
2023/01/28 06:54:00;;;;;;;4.75;3.28;;;17.40;99.90;;;;;;5052232;28;20366;-53
2023/01/28 06:56:26;;;;;;;4.57;3.50;;;17.40;99.90;;;;;;5052111;28;20048;-54
2023/01/28 06:58:51;;;;;;;5.97;3.90;;;17.40;99.90;;;;;;5052140;28;20023;-53
2023/01/28 07:01:17;;;;;;;4.47;2.80;;;17.30;99.90;;;;;;5052249;28;20136;-54
2023/01/28 07:03:43;;;;;;;4.88;3.67;;;17.30;99.90;;;;;;5052437;28;20060;-54
2023/01/28 07:06:09;;;;;;;4.57;3.63;;;17.30;99.90;;;;;;5051995;28;20033;-54
2023/01/28 07:08:36;;;;;;;6.60;3.92;;;17.30;99.90;;;;;;5050778;28;20037;-54
2023/01/28 07:11:03;;;;;;;6.25;3.78;;;17.30;99.90;;;;;;5052056;28;20044;-54
2023/01/28 07:13:29;;;;;;;4.75;3.28;;;17.30;99.90;;;;;;5052119;28;20108;-55
2023/01/28 07:15:55;;;;;;;7.55;3.50;;;17.30;99.90;;;;;;5052019;28;20018;-54
2023/01/28 07:18:21;;;;;;;6.20;3.85;;;17.30;99.90;;;;;;5052074;28;20021;-54
2023/01/28 07:20:47;;;;;;;6.25;3.85;;;17.30;99.90;;;;;;5051975;28;20350;-54
2023/01/28 07:23:13;;;;;;;5.00;3.78;;;17.30;99.90;;;;;;5052281;28;20052;-53
2023/01/28 07:25:38;;;;;;;6.07;3.83;;;17.30;99.90;;;;;;5051835;28;20477;-53
2023/01/28 07:28:04;;;;;;;5.55;3.45;;;17.30;99.90;;;;;;5051935;28;20472;-54
2023/01/28 07:30:30;;;;;;;5.32;3.50;;;17.30;99.90;;;;;;5051985;28;20382;-51
2023/01/28 07:32:57;;;;;;;4.32;3.38;;;17.20;99.90;;;;;;5050659;28;20337;-53
2023/01/28 07:35:24;;;;;;;4.75;3.13;;;17.20;99.90;;;;;;5054103;28;20027;-53
2023/01/28 07:38:00;;;;;;;5.05;4.15;;;17.20;99.90;;;;;;5055804;28;20021;-53
2023/01/28 07:40:27;;;;;;;5.95;4.07;;;17.20;99.90;;;;;;5055823;28;20046;-54
2023/01/28 07:42:54;;;;;;;5.40;3.50;;;17.20;99.90;;;;;;5055738;28;20030;-53
2023/01/28 07:45:20;;;;;;;4.35;3.35;;;17.20;99.90;;;;;;5055738;28;20345;-55
2023/01/28 07:48:15;;;;;;;5.78;3.83;;;17.20;99.90;;;;;;5055848;28;20045;-54
2023/01/28 07:50:41;;;;;;;6.53;4.22;;;17.20;99.90;;;;;;5054323;28;20041;-54
2023/01/28 07:53:10;;;;;;;7.30;4.45;;;17.20;99.90;;;;;;5055498;28;20029;-53
2023/01/28 07:55:37;;;;;;;5.20;4.25;;;17.20;99.90;;;;;;5055461;28;20056;-53
2023/01/28 07:58:05;;;;;;;6.10;4.47;;;17.20;99.90;;;;;;5055481;28;20108;-54
2023/01/28 08:00:32;;;;;;;5.25;3.90;;;17.20;99.90;;;;;;5055235;28;20469;-55
2023/01/28 08:03:01;;;;;;;6.22;3.83;;;17.30;99.90;;;;;;5055192;28;20037;-54
2023/01/28 08:05:39;;;;;;;7.45;4.30;;;17.30;99.90;;;;;;5055282;28;20033;-53
2023/01/28 08:08:06;;;;;;;5.40;3.35;;;17.20;99.90;;;;;;5053917;28;20029;-56
2023/01/28 08:10:31;;;;;;;5.82;3.72;;;17.30;99.90;;;;;;5055292;28;20409;-56
2023/01/28 08:12:58;;;;;;;5.93;3.95;;;17.30;99.90;;;;;;5055126;28;20028;-55
2023/01/28 08:15:24;;;;;;;5.95;4.50;;;17.20;99.90;;;;;;5055016;28;20024;-52
2023/01/28 08:17:52;;;;;;;5.57;3.80;;;17.30;99.90;;;;;;5055007;28;20108;-55
2023/01/28 08:20:17;;;;;;;;;;;17.30;99.90;;;;;;5055640;28;20017;-53
2023/01/28 08:22:43;;;;;;;5.78;4.00;;;17.30;99.90;;;;;;5055134;28;19981;-53
2023/01/28 08:25:09;;;;;;;5.45;3.55;;;17.30;99.90;;;;;;5054847;28;20036;-53
2023/01/28 08:27:35;;;;;;;5.22;3.88;;;17.40;99.90;;;;;;5054805;28;20040;-56
2023/01/28 08:30:01;;;;;;;5.60;3.83;;;17.40;99.90;;;;;;5054853;28;20104;-54
2023/01/28 08:32:29;;;;;;;7.53;4.18;;;17.40;99.90;;;;;;5054713;28;20025;-56
2023/01/28 08:34:55;;;;;;;6.55;3.60;;;17.40;99.90;;;;;;5054638;28;20025;-56
2023/01/28 08:37:21;;;;;;;5.65;3.85;;;17.50;99.90;;;;;;5054571;28;20117;-55
2023/01/28 08:39:47;;;;;;;5.13;3.47;;;17.50;99.90;;;;;;5054839;28;20096;-52
2023/01/28 08:42:12;;;;;;;5.85;4.05;;;17.50;99.90;;;;;;5054570;28;20025;-55
2023/01/28 08:44:38;;;;;;;5.15;4.13;;;17.50;99.90;;;;;;5054502;28;20029;-56
2023/01/28 08:47:04;;;;;;;5.10;3.35;;;17.60;99.90;;;;;;5052327;28;20033;-56
2023/01/28 08:49:30;;;;;;;5.80;3.88;;;17.60;99.90;;;;;;5054445;28;20060;-55
2023/01/28 08:51:58;;;;;;;5.63;4.28;;;17.70;99.90;;;;;;5054492;28;20025;-57
2023/01/28 08:54:24;;;;;;;9.13;5.95;;;17.70;99.90;;;;;;5054372;28;20024;-56
2023/01/28 08:56:51;;;;;;;11.02;6.65;;;17.70;99.90;;;;;;5054588;28;20025;-56
2023/01/28 08:59:17;;;;;;;9.15;6.25;;;17.80;99.90;;;;;;5054365;28;20021;-55
2023/01/28 09:01:43;;;;;;;10.95;7.35;;;17.80;99.90;;;;;;5054319;28;20485;-57
2023/01/28 09:04:09;;;;;;;9.75;6.35;;;17.80;99.90;;;;;;5054376;28;20038;-58
2023/01/28 09:06:34;;;;;;;11.00;7.20;;;17.80;99.90;;;;;;5052849;28;20041;-56
2023/01/28 09:09:01;;;;;;;12.60;8.27;;;17.80;99.90;;;;;;5053023;28;20402;-56
2023/01/28 09:11:28;;;;;;;14.65;9.43;;;17.90;99.90;;;;;;5054189;28;20568;-57
2023/01/28 09:13:55;;;;;;;16.73;10.95;;;17.90;99.90;;;;;;5054009;28;20056;-57
2023/01/28 09:16:21;;;;;;;12.25;8.00;;;18.00;99.90;;;;;;5054354;28;20420;-56
2023/01/28 09:18:47;;;;;;;13.32;9.32;;;18.00;99.90;;;;;;5054274;28;20032;-56
2023/01/28 09:21:13;;;;;;;15.55;9.05;;;18.00;99.90;;;;;;5053811;28;20017;-56
2023/01/28 09:23:39;;;;;;;14.65;9.10;;;18.10;99.90;;;;;;5053768;28;20083;-55
2023/01/28 09:26:06;;;;;;;15.10;9.70;;;18.10;99.90;;;;;;5053739;28;20028;-56
2023/01/28 09:28:32;;;;;;;14.05;10.27;;;18.10;99.90;;;;;;5053717;28;20025;-56
2023/01/28 09:31:09;;;;;;;14.63;8.73;;;18.10;99.90;;;;;;5052391;28;20379;-57
2023/01/28 09:33:37;;;;;;;16.88;11.00;;;18.20;99.90;;;;;;5053879;28;20028;-56
2023/01/28 09:36:05;;;;;;;15.80;10.20;;;18.20;99.90;;;;;;5053575;28;20027;-56
2023/01/28 09:38:33;;;;;;;16.90;10.55;;;18.30;99.90;;;;;;5053416;28;20116;-55
2023/01/28 09:41:02;;;;;;;18.40;11.05;;;18.30;99.90;;;;;;5053411;28;20048;-57
2023/01/28 09:43:49;;;;;;;14.70;10.30;;;18.30;99.90;;;;;;5053128;28;20021;-55
2023/01/28 09:46:17;;;;;;;14.45;9.98;;;18.30;99.90;;;;;;5053144;28;20520;-55
2023/01/28 09:48:51;;;;;;;16.10;10.88;;;18.40;99.90;;;;;;5053063;28;20036;-55
2023/01/28 09:51:45;;;;;;;15.55;10.18;;;18.40;99.90;;;;;;5053107;28;20021;-56
2023/01/28 09:54:21;;;;;;;16.23;11.10;;;18.40;99.90;;;;;;5052844;28;20048;-55
2023/01/28 09:56:50;;;;;;;16.00;10.38;;;18.50;99.90;;;;;;5052673;28;20021;-57
2023/01/28 09:59:19;;;;;;;16.17;10.93;;;18.50;99.90;;;;;;5052169;28;20024;-54
2023/01/28 10:02:12;;;;;;;16.17;10.70;;;18.50;99.90;;;;;;5049908;28;20473;-54
2023/01/28 10:04:49;;;;;;;17.83;10.75;;;18.60;99.90;;;;;;5051646;28;20039;-53
2023/01/28 10:07:40;;;;;;;28.33;9.40;;;18.60;99.90;;;;;;5052203;28;20082;-55
2023/01/28 10:10:11;;;;;;;17.13;9.57;;;18.60;99.90;;;;;;5051316;28;20029;-53
2023/01/28 10:12:59;;;;;;;14.30;9.90;;;18.70;99.90;;;;;;5050970;28;20017;-55
2023/01/28 10:15:28;;;;;;;13.13;9.80;;;18.70;99.90;;;;;;5050368;28;20025;-54
2023/01/28 10:18:00;;;;;;;13.75;8.38;;;18.80;99.90;;;;;;5042544;28;20033;-54
2023/01/28 10:20:32;;;;;;;13.10;8.35;;;18.90;99.90;;;;;;5033752;28;20021;-56
2023/01/28 10:23:24;;;;;;;13.73;8.15;;;18.90;99.90;;;;;;5043177;28;20112;-53
2023/01/28 10:25:49;;;;;;;12.82;8.52;;;18.90;99.90;;;;;;5041232;28;20037;-54
2023/01/28 10:28:28;;;;;;;13.75;9.10;;;19.00;99.90;;;;;;5037268;28;20039;-54
2023/01/28 10:30:54;;;;;;;11.85;7.88;;;19.00;99.90;;;;;;5042677;28;20017;-54
2023/01/28 10:33:36;;;;;;;11.80;8.25;;;19.10;99.90;;;;;;5034719;28;20493;-55
2023/01/28 10:36:03;;;;;;;16.65;9.90;;;19.20;99.90;;;;;;5037138;28;20397;-55
2023/01/28 10:38:29;;;;;;;12.53;8.47;;;19.30;99.90;;;;;;5031691;28;20013;-54
2023/01/28 10:41:00;;;;;;;13.65;8.32;;;19.40;99.90;;;;;;5031984;28;20033;-54
2023/01/28 10:43:32;;;;;;;13.82;8.45;;;19.40;99.90;;;;;;5031421;28;20429;-56
2023/01/28 10:46:01;;;;;;;12.50;7.80;;;19.40;99.90;;;;;;5031104;28;20146;-54
2023/01/28 10:48:47;;;;;;;11.32;8.82;;;19.50;99.90;;;;;;5042004;28;20020;-54
2023/01/28 10:51:14;;;;;;;11.60;7.53;;;19.50;99.90;;;;;;5043254;28;20018;-55
2023/01/28 10:53:45;;;;;;;9.82;6.88;;;19.60;99.90;;;;;;5043506;28;20028;-54
2023/01/28 10:56:43;;;;;;;10.77;7.97;;;19.70;99.90;;;;;;5042578;28;20493;-53
2023/01/28 10:59:24;;;;;;;10.75;7.55;;;19.70;99.90;;;;;;5024288;28;20029;-55
2023/01/28 11:02:02;;;;;;;12.32;7.28;;;19.80;99.90;;;;;;5040712;28;20029;-54
2023/01/28 11:04:29;;;;;;;;;;;19.80;99.90;;;;;;5046212;28;20031;-54
2023/01/28 11:07:04;;;;;;;10.20;7.07;;;19.90;99.90;;;;;;5048936;28;19975;-55
2023/01/28 11:09:35;;;;;;;51.83;10.90;;;19.90;99.90;;;;;;5030947;28;20025;-56
2023/01/28 11:12:28;;;;;;;76.63;12.18;;;19.90;99.90;;;;;;5030277;28;20064;-56
2023/01/28 11:14:57;;;;;;;164.57;18.98;;;19.80;99.90;;;;;;5031168;28;20092;-54
2023/01/28 11:17:28;;;;;;;75.55;12.40;;;19.80;99.90;;;;;;5031467;28;20032;-57
2023/01/28 11:19:58;;;;;;;54.80;9.20;;;19.80;99.90;;;;;;5048485;28;20025;-55
2023/01/28 11:22:37;;;;;;;37.67;8.93;;;19.80;99.90;;;;;;5045776;28;20018;-56
2023/01/28 11:25:15;;;;;;;44.55;9.35;;;19.80;99.90;;;;;;5040007;28;20487;-57
2023/01/28 11:27:47;;;;;;;47.63;9.38;;;19.80;99.90;;;;;;5034723;28;20037;-53
2023/01/28 11:30:23;;;;;;;40.75;9.80;;;19.80;99.90;;;;;;5037179;28;20104;-52
2023/01/28 11:33:06;;;;;;;48.25;9.10;;;19.80;99.90;;;;;;5051463;28;20021;-52
2023/01/28 11:35:32;;;;;;;26.00;7.72;;;19.80;99.90;;;;;;5050890;28;20062;-51
2023/01/28 11:37:59;;;;;;;34.17;8.68;;;19.90;99.90;;;;;;5034751;28;20026;-53
2023/01/28 11:40:25;;;;;;;35.17;7.90;;;19.90;99.90;;;;;;5050514;28;20112;-51
2023/01/28 11:42:55;;;;;;;59.15;9.40;;;20.00;99.90;;;;;;5047464;28;20270;-52
2023/01/28 11:45:49;;;;;;;30.73;8.75;;;20.00;99.90;;;;;;5038044;28;20025;-51
2023/01/28 11:48:43;;;;;;;37.05;7.28;;;20.00;99.90;;;;;;5048436;28;20037;-53
2023/01/28 11:51:44;;;;;;;32.30;8.18;;;20.10;99.90;;;;;;5051108;28;20029;-57
2023/01/28 11:54:16;;;;;;;21.85;7.55;;;20.10;99.90;;;;;;5022301;28;20037;-56
2023/01/28 11:57:00;;;;;;;25.17;7.82;;;20.20;99.90;;;;;;5045215;28;20422;-55
2023/01/28 11:59:45;;;;;;;24.23;7.70;;;20.20;99.90;;;;;;5051457;28;20065;-54
2023/01/28 12:02:52;;;;;;;25.33;9.07;;;20.20;99.90;;;;;;5051256;28;20017;-52
2023/01/28 12:05:33;;;;;;;;;;;20.20;99.90;;;;;;5026701;28;20033;-53
2023/01/28 12:08:04;;;;;;;21.83;8.10;;;20.30;99.90;;;;;;5051213;28;19913;-54
2023/01/28 12:10:57;;;;;;;21.98;8.10;;;20.30;99.90;;;;;;5051417;28;20021;-54
2023/01/28 12:13:48;;;;;;;16.48;7.53;;;20.30;99.90;;;;;;5051103;28;20028;-55
2023/01/28 12:16:43;;;;;;;32.50;7.30;;;20.30;99.90;;;;;;5050984;28;20029;-56
2023/01/28 12:19:12;;;;;;;17.58;8.48;;;20.30;99.90;;;;;;5026871;28;20348;-59
2023/01/28 12:21:52;;;;;;;25.20;8.43;;;20.40;99.90;;;;;;5034521;28;20047;-60
2023/01/28 12:24:34;;;;;;;15.93;7.82;;;20.40;99.90;;;;;;5054536;28;20102;-59
2023/01/28 12:27:00;;;;;;;19.80;8.57;;;20.50;99.90;;;;;;5040553;28;20057;-53
2023/01/28 12:29:52;;;;;;;17.30;7.75;;;20.50;99.90;;;;;;5054497;28;20055;-53
2023/01/28 12:33:10;;;;;;;16.80;8.18;;;20.60;99.90;;;;;;5029489;28;20069;-55
2023/01/28 12:36:06;;;;;;;19.85;7.28;;;20.60;99.90;;;;;;4988906;28;20096;-55
2023/01/28 12:38:32;;;;;;;19.85;6.97;;;20.70;99.90;;;;;;5036918;28;20029;-54
2023/01/28 12:41:10;;;;;;;20.17;8.07;;;20.70;99.90;;;;;;5054088;28;20013;-54
2023/01/28 12:43:36;;;;;;;14.32;7.07;;;20.80;99.90;;;;;;5054049;28;20029;-57
2023/01/28 12:46:36;;;;;;;16.17;7.93;;;20.80;99.90;;;;;;5043335;28;20385;-54
2023/01/28 12:49:02;;;;;;;19.23;8.00;;;20.80;99.90;;;;;;5031067;28;20029;-54
2023/01/28 12:51:51;;;;;;;12.45;7.03;;;20.90;99.90;;;;;;5034016;28;20029;-56
2023/01/28 12:54:37;;;;;;;15.73;7.63;;;20.90;99.90;;;;;;5037107;28;20025;-55
2023/01/28 12:57:03;;;;;;;14.88;6.75;;;21.00;99.90;;;;;;5053758;28;20021;-52
2023/01/28 12:59:50;;;;;;;14.25;6.95;;;21.00;99.90;;;;;;5053760;28;20021;-53
2023/01/28 13:02:21;;;;;;;20.35;7.10;;;21.00;99.90;;;;;;5037565;28;20033;-56
2023/01/28 13:05:07;;;;;;;18.05;7.63;;;21.10;99.90;;;;;;5040859;28;20109;-56
2023/01/28 13:07:47;;;;;;;19.77;7.70;;;21.10;99.90;;;;;;5033969;28;20458;-53
2023/01/28 13:10:23;;;;;;;17.80;7.60;;;21.10;99.90;;;;;;5042053;28;20473;-54
2023/01/28 13:12:49;;;;;;;22.65;8.82;;;21.20;99.90;;;;;;5053525;28;20052;-55
2023/01/28 13:15:18;;;;;;;15.15;8.00;;;21.20;99.90;;;;;;5053806;28;20074;-54
2023/01/28 13:17:55;;;;;;;14.85;7.28;;;21.20;99.90;;;;;;5042654;28;20385;-54
2023/01/28 13:20:30;;;;;;;17.35;8.07;;;21.30;99.90;;;;;;5045327;28;20032;-56
2023/01/28 13:23:01;;;;;;;12.05;7.55;;;21.30;99.90;;;;;;5053603;28;20021;-56
2023/01/28 13:25:26;;;;;;;17.70;7.53;;;21.30;99.90;;;;;;5053478;28;20428;-54
2023/01/28 13:28:01;;;;;;;16.65;7.80;;;21.30;99.90;;;;;;5052866;28;20025;-54
2023/01/28 13:30:32;;;;;;;14.52;7.22;;;21.40;99.90;;;;;;5040963;28;20119;-58
2023/01/28 13:33:05;;;;;;;17.52;6.68;;;21.40;99.90;;;;;;5046869;28;20033;-62
2023/01/28 13:35:39;;;;;;;14.13;6.90;;;21.40;99.90;;;;;;5053217;28;20017;-53